Hallie, Kentucky
Current Conditions -  °F | °C
As of 6:55 PM on Monday 22 Dec 2014 (Local Time) from KI35 Reporting Station
Overcast Overcast  
Wind Chill: 55°   Ceiling: 6000
Heat Index: 55°   Visibility: 10mi
Dew Point: 41°   Wind: 8mph
Humidity: 58%   Direction: 190°S
Pressure: 29.84"   Gusts: NA
Location:  37°N, 83.06°W
Report Text: KI35 222355Z AUTO 19007KT 10SM OVC060 13/05 A2984 RMK AO1
Loading
Personal Weather Stations






























Interactive Weather Map New forecast layout! Learn more

10-Day Weather Forecast

Advertisements
Track Severe Weather on mobile